createdAt,value
2022-09-29T00:01:09.872Z,2.33
2022-09-29T00:03:37.865Z,2.38
2022-09-29T00:06:16.266Z,2.25
2022-09-29T00:08:44.671Z,2.25
2022-09-29T00:11:14.595Z,2.17
2022-09-29T00:13:42.924Z,1.90
2022-09-29T00:16:13.360Z,1.92
2022-09-29T00:18:44.004Z,2.50
2022-09-29T00:21:17.444Z,1.92
2022-09-29T00:23:44.971Z,2.28
2022-09-29T00:26:22.445Z,2.78
2022-09-29T00:28:56.957Z,2.15
2022-09-29T00:31:30.550Z,2.03
2022-09-29T00:33:58.793Z,1.90
2022-09-29T00:36:30.303Z,1.77
2022-09-29T00:38:59.110Z,2.67
2022-09-29T00:41:30.356Z,1.90
2022-09-29T00:44:07.930Z,1.70
2022-09-29T00:46:56.327Z,1.40
2022-09-29T00:49:59.529Z,2.10
2022-09-29T00:52:38.689Z,1.15
2022-09-29T00:55:18.456Z,2.05
2022-09-29T00:58:09.611Z,2.00
2022-09-29T01:00:37.788Z,2.55
2022-09-29T01:03:10.064Z,1.90
2022-09-29T01:05:42.668Z,2.95
2022-09-29T01:08:22.424Z,1.83
2022-09-29T01:10:51.721Z,2.50
2022-09-29T01:13:20.404Z,1.63
2022-09-29T01:15:47.934Z,1.70
2022-09-29T01:18:15.529Z,2.08
2022-09-29T01:20:59.380Z,1.73
2022-09-29T01:23:54.450Z,1.90
2022-09-29T01:26:48.736Z,2.20
2022-09-29T01:29:35.005Z,2.22
2022-09-29T01:32:02.417Z,2.13
2022-09-29T01:34:40.751Z,2.28
2022-09-29T01:37:27.976Z,2.83
2022-09-29T01:40:10.757Z,2.45
2022-09-29T01:42:51.329Z,1.90
2022-09-29T01:45:24.045Z,2.55
2022-09-29T01:47:57.046Z,2.00
2022-09-29T01:50:33.771Z,2.67
2022-09-29T01:53:07.072Z,2.20
2022-09-29T01:55:37.706Z,2.15
2022-09-29T01:58:14.992Z,1.88
2022-09-29T02:00:50.895Z,1.40
2022-09-29T02:03:32.745Z,1.80
2022-09-29T02:06:04.719Z,1.92
2022-09-29T02:08:38.360Z,2.13
2022-09-29T02:11:08.682Z,2.10
2022-09-29T02:13:43.118Z,1.90
2022-09-29T02:16:14.346Z,1.90
2022-09-29T02:18:58.156Z,2.05
2022-09-29T02:21:27.695Z,1.67
2022-09-29T02:23:55.923Z,1.52
2022-09-29T02:26:25.852Z,1.92
2022-09-29T02:28:54.954Z,1.92
2022-09-29T02:31:23.974Z,1.90
2022-09-29T02:33:51.436Z,1.73
2022-09-29T02:36:25.158Z,1.75
2022-09-29T02:39:29.607Z,1.33
2022-09-29T02:42:22.109Z,1.60
2022-09-29T02:45:23.326Z,2.20
2022-09-29T02:48:24.291Z,1.50
2022-09-29T02:51:20.569Z,2.10
2022-09-29T02:54:12.665Z,1.77
2022-09-29T02:56:49.770Z,2.78
2022-09-29T02:59:51.967Z,1.40
2022-09-29T03:02:27.387Z,2.50
2022-09-29T03:04:55.140Z,1.92
2022-09-29T03:07:22.646Z,2.55
2022-09-29T03:09:50.351Z,2.20
2022-09-29T03:12:18.416Z,2.10
2022-09-29T03:14:45.930Z,2.25
2022-09-29T03:17:13.433Z,1.70
2022-09-29T03:19:41.208Z,2.05
2022-09-29T03:22:08.693Z,1.90
2022-09-29T03:24:36.281Z,2.45
2022-09-29T03:27:04.556Z,1.80
2022-09-29T03:29:32.321Z,2.22
2022-09-29T03:32:00.408Z,2.50
2022-09-29T03:34:27.951Z,2.35
2022-09-29T03:36:55.550Z,2.25
2022-09-29T03:39:23.520Z,2.10
2022-09-29T03:41:51.487Z,2.20
2022-09-29T03:44:19.082Z,2.35
2022-09-29T03:46:47.328Z,2.67
2022-09-29T03:49:15.737Z,2.53
2022-09-29T03:51:43.281Z,3.00
2022-09-29T03:54:11.277Z,2.22
2022-09-29T03:56:39.030Z,2.70
2022-09-29T03:59:09.392Z,2.38
2022-09-29T04:01:38.299Z,2.17
2022-09-29T04:04:07.024Z,1.90
2022-09-29T04:06:36.286Z,2.08
2022-09-29T04:09:04.480Z,2.05
2022-09-29T04:11:32.185Z,2.85
2022-09-29T04:13:59.662Z,2.17
2022-09-29T04:16:27.229Z,2.13
2022-09-29T04:18:54.891Z,3.92
2022-09-29T04:21:22.606Z,2.10
2022-09-29T04:23:50.241Z,1.98
2022-09-29T04:26:20.583Z,2.45
2022-09-29T04:28:48.152Z,2.10
2022-09-29T04:31:16.088Z,1.90
2022-09-29T04:33:43.681Z,2.15
2022-09-29T04:36:11.185Z,4.03
2022-09-29T04:38:38.658Z,2.33
2022-09-29T04:41:06.187Z,2.60
2022-09-29T04:43:33.708Z,2.85
2022-09-29T04:46:05.887Z,3.03
2022-09-29T04:48:35.947Z,2.70
2022-09-29T04:51:05.525Z,2.92
2022-09-29T04:53:32.976Z,2.70
2022-09-29T04:56:05.604Z,2.75
2022-09-29T04:58:33.372Z,2.45
2022-09-29T05:01:13.727Z,2.63
2022-09-29T05:03:42.332Z,2.72
2022-09-29T05:06:10.138Z,2.65
2022-09-29T05:08:37.651Z,2.17
2022-09-29T05:11:06.864Z,3.03
2022-09-29T05:13:34.639Z,2.83
2022-09-29T05:16:03.239Z,3.13
2022-09-29T05:18:32.586Z,3.42
2022-09-29T05:21:26.529Z,3.75
2022-09-29T05:23:52.643Z,3.00
2022-09-29T05:26:20.276Z,2.50
2022-09-29T05:28:48.358Z,3.38
2022-09-29T05:31:18.021Z,3.72
2022-09-29T05:33:45.643Z,2.70
2022-09-29T05:36:13.368Z,3.88
2022-09-29T05:38:41.126Z,5.15
2022-09-29T05:41:11.098Z,4.55
2022-09-29T05:43:40.397Z,4.57
2022-09-29T05:46:10.963Z,3.75
2022-09-29T05:48:38.739Z,5.32
2022-09-29T05:51:11.513Z,4.30
2022-09-29T05:53:39.519Z,4.07
2022-09-29T05:56:22.545Z,3.13
2022-09-29T05:58:50.294Z,4.72
2022-09-29T06:01:23.924Z,3.05
2022-09-29T06:03:54.644Z,2.70
2022-09-29T06:06:25.369Z,2.55
2022-09-29T06:08:53.563Z,2.53
2022-09-29T06:11:24.292Z,2.28
2022-09-29T06:13:53.243Z,2.35
2022-09-29T06:16:24.422Z,2.35
2022-09-29T06:18:51.991Z,2.20
2022-09-29T06:21:23.950Z,2.03
2022-09-29T06:23:53.464Z,2.40
2022-09-29T06:26:23.909Z,2.42
2022-09-29T06:28:53.135Z,3.47
2022-09-29T06:31:23.780Z,3.13
2022-09-29T06:33:51.779Z,3.30
2022-09-29T06:36:44.874Z,3.13
2022-09-29T06:39:14.165Z,3.25
2022-09-29T06:41:44.501Z,2.55
2022-09-29T06:44:12.354Z,3.05
2022-09-29T06:46:39.876Z,2.30
2022-09-29T06:49:07.402Z,2.00
2022-09-29T06:51:45.020Z,2.33
2022-09-29T06:54:15.518Z,2.38
2022-09-29T06:56:46.329Z,2.00
2022-09-29T06:59:13.818Z,3.88
2022-09-29T07:01:41.362Z,3.80
2022-09-29T07:04:09.061Z,2.65
2022-09-29T07:06:36.471Z,2.40
2022-09-29T07:09:04.306Z,2.08
2022-09-29T07:11:31.817Z,2.67
2022-09-29T07:13:59.429Z,3.10
2022-09-29T07:16:27.004Z,3.40
2022-09-29T07:18:54.580Z,2.90
2022-09-29T07:21:22.422Z,3.53
2022-09-29T07:23:50.453Z,2.58
2022-09-29T07:26:18.546Z,2.17
2022-09-29T07:28:47.151Z,2.53
2022-09-29T07:31:18.426Z,1.67
2022-09-29T07:33:48.187Z,1.70
2022-09-29T07:36:18.000Z,1.70
2022-09-29T07:38:50.107Z,1.60
2022-09-29T07:41:20.538Z,1.58
2022-09-29T07:43:48.375Z,1.70
2022-09-29T07:46:16.230Z,1.63
2022-09-29T07:48:44.195Z,1.50
2022-09-29T07:51:16.491Z,2.15
2022-09-29T07:53:45.083Z,1.92
2022-09-29T07:56:18.675Z,1.60
2022-09-29T07:58:49.554Z,1.67
2022-09-29T08:01:18.831Z,2.80
2022-09-29T08:03:54.881Z,1.75
2022-09-29T08:09:02.227Z,1.98
2022-09-29T08:11:33.003Z,2.30
2022-09-29T08:14:02.097Z,1.88
2022-09-29T08:16:29.780Z,1.83
2022-09-29T08:18:57.737Z,1.92
2022-09-29T08:21:25.408Z,1.95
2022-09-29T08:23:52.968Z,1.65
2022-09-29T08:26:35.647Z,2.63
2022-09-29T08:29:08.792Z,2.08
2022-09-29T08:31:40.292Z,1.63
2022-09-29T08:34:08.095Z,1.90
2022-09-29T08:36:36.746Z,1.83
2022-09-29T08:39:04.810Z,1.85
2022-09-29T08:41:41.154Z,1.33
2022-09-29T08:44:35.318Z,1.98
2022-09-29T08:49:48.212Z,1.85
2022-09-29T08:52:21.644Z,1.83
2022-09-29T08:54:55.088Z,1.80
2022-09-29T08:57:22.716Z,1.98
2022-09-29T08:59:58.956Z,1.95
2022-09-29T09:02:56.548Z,1.83
2022-09-29T09:05:55.436Z,1.67
2022-09-29T09:08:37.825Z,1.80
2022-09-29T09:11:09.068Z,1.98
2022-09-29T09:14:10.414Z,2.80
2022-09-29T09:16:55.855Z,1.73
2022-09-29T09:19:35.199Z,2.45
2022-09-29T09:22:28.871Z,1.63
2022-09-29T09:25:08.211Z,1.63
2022-09-29T09:27:41.219Z,1.80
2022-09-29T09:30:19.862Z,1.80
2022-09-29T09:33:01.219Z,1.85
2022-09-29T09:35:54.291Z,1.88
2022-09-29T09:38:34.322Z,2.60
2022-09-29T09:41:02.419Z,2.35
2022-09-29T09:43:32.101Z,2.00
2022-09-29T09:46:17.410Z,1.90
2022-09-29T09:49:04.262Z,1.77
2022-09-29T09:51:51.188Z,1.75
2022-09-29T09:54:55.309Z,1.90
2022-09-29T09:57:44.227Z,1.60
2022-09-29T10:00:21.835Z,2.17
2022-09-29T10:02:53.449Z,1.40
2022-09-29T10:05:36.689Z,1.90
2022-09-29T10:08:06.554Z,1.83
2022-09-29T10:10:35.544Z,1.80
2022-09-29T10:13:06.135Z,1.77
2022-09-29T10:15:43.524Z,1.90
2022-09-29T10:18:29.409Z,2.13
2022-09-29T10:20:57.125Z,2.85
2022-09-29T10:23:35.696Z,2.58
2022-09-29T10:26:18.191Z,2.35
2022-09-29T10:28:51.774Z,2.00
2022-09-29T10:31:27.396Z,1.75
2022-09-29T10:33:58.011Z,1.88
2022-09-29T10:36:32.715Z,2.20
2022-09-29T10:39:03.375Z,1.60
2022-09-29T10:41:54.158Z,1.65
2022-09-29T10:44:22.789Z,2.55
2022-09-29T10:47:00.468Z,2.28
2022-09-29T10:49:29.484Z,2.10
2022-09-29T10:52:02.092Z,2.33
2022-09-29T10:54:35.543Z,2.00
2022-09-29T10:57:15.673Z,2.00
2022-09-29T10:59:53.217Z,2.15
2022-09-29T11:02:30.306Z,2.00
2022-09-29T11:05:04.734Z,1.92
2022-09-29T11:07:34.299Z,2.08
2022-09-29T11:10:02.061Z,1.88
2022-09-29T11:12:36.635Z,1.90
2022-09-29T11:15:24.481Z,1.63
2022-09-29T11:17:53.067Z,1.70
2022-09-29T11:20:25.333Z,1.98
2022-09-29T11:23:18.191Z,1.92
2022-09-29T11:25:57.803Z,2.15
2022-09-29T11:28:44.107Z,1.88
2022-09-29T11:31:20.332Z,2.33
2022-09-29T11:34:11.584Z,1.98
2022-09-29T11:36:51.124Z,2.22
2022-09-29T11:39:24.840Z,2.17
2022-09-29T11:41:59.145Z,2.10
2022-09-29T11:44:35.675Z,2.15
2022-09-29T11:47:47.205Z,1.50
2022-09-29T11:50:27.386Z,1.83
2022-09-29T11:53:26.995Z,2.08
2022-09-29T11:56:21.418Z,2.50
2022-09-29T11:59:00.796Z,1.90
2022-09-29T12:01:40.792Z,2.10
2022-09-29T12:04:34.308Z,1.70
2022-09-29T12:07:25.641Z,2.08
2022-09-29T12:10:26.013Z,2.05
2022-09-29T12:13:02.634Z,2.50
2022-09-29T12:15:47.786Z,1.90
2022-09-29T12:18:19.809Z,1.80
2022-09-29T12:20:52.185Z,2.85
2022-09-29T12:23:23.664Z,2.90
2022-09-29T12:26:11.226Z,2.80
2022-09-29T12:28:49.947Z,2.28
2022-09-29T12:31:26.961Z,2.83
2022-09-29T12:34:06.121Z,2.65
2022-09-29T12:37:31.720Z,2.35
2022-09-29T12:40:20.181Z,2.13
2022-09-29T12:43:04.596Z,2.22
2022-09-29T12:46:03.957Z,1.95
2022-09-29T12:49:02.166Z,2.63
2022-09-29T12:51:35.302Z,2.03
2022-09-29T12:54:22.738Z,2.15
2022-09-29T12:57:06.428Z,2.20
2022-09-29T12:59:39.733Z,2.10
2022-09-29T13:02:52.246Z,3.03
2022-09-29T13:05:35.049Z,2.50
2022-09-29T13:08:14.688Z,3.08
2022-09-29T13:11:17.889Z,2.63
2022-09-29T13:14:22.831Z,2.80
2022-09-29T13:17:12.007Z,2.40
2022-09-29T13:20:02.750Z,2.20
2022-09-29T13:22:59.916Z,2.75
2022-09-29T13:28:24.863Z,2.95
2022-09-29T13:30:56.103Z,3.13
2022-09-29T13:33:25.807Z,2.20
2022-09-29T13:35:53.899Z,2.58
2022-09-29T13:38:31.944Z,2.88
2022-09-29T13:41:31.694Z,2.42
2022-09-29T13:43:59.177Z,2.90
2022-09-29T13:46:32.444Z,3.25
2022-09-29T13:49:13.969Z,3.08
2022-09-29T13:51:48.426Z,2.50
2022-09-29T13:54:36.157Z,2.35
2022-09-29T13:57:15.243Z,2.80
2022-09-29T14:00:15.235Z,2.50
2022-09-29T14:03:03.755Z,2.85
2022-09-29T14:05:31.252Z,2.28
2022-09-29T14:13:52.357Z,2.67
2022-09-29T14:16:35.219Z,2.75
2022-09-29T14:19:08.743Z,3.35
2022-09-29T14:21:55.121Z,2.55
2022-09-29T14:24:37.667Z,2.58
2022-09-29T14:27:29.540Z,2.35
2022-09-29T14:30:19.899Z,2.35
2022-09-29T14:33:09.574Z,2.70
2022-09-29T14:35:40.020Z,2.47
2022-09-29T14:38:16.815Z,2.50
2022-09-29T14:41:06.042Z,2.83
2022-09-29T14:43:50.875Z,2.75
2022-09-29T14:46:58.051Z,2.42
2022-09-29T14:49:44.179Z,2.20
2022-09-29T14:52:27.823Z,2.45
2022-09-29T14:55:18.739Z,2.88
2022-09-29T14:57:52.688Z,2.72
2022-09-29T15:00:24.935Z,2.15
2022-09-29T15:03:00.356Z,2.30
2022-09-29T15:05:43.559Z,2.65
2022-09-29T15:08:29.593Z,2.00
2022-09-29T15:10:58.191Z,2.60
2022-09-29T15:13:31.707Z,2.72
2022-09-29T15:16:17.716Z,2.40
2022-09-29T15:19:11.787Z,2.80
2022-09-29T15:21:49.230Z,2.67
2022-09-29T15:24:34.800Z,2.30
2022-09-29T15:27:04.248Z,2.50
2022-09-29T15:29:31.963Z,2.78
2022-09-29T15:31:59.523Z,2.35
2022-09-29T15:34:27.105Z,3.00
2022-09-29T15:36:57.997Z,2.08
2022-09-29T15:39:31.997Z,3.53
2022-09-29T15:42:19.638Z,2.85
2022-09-29T15:44:55.213Z,2.60
2022-09-29T15:47:27.758Z,2.60
2022-09-29T15:49:55.700Z,2.65
2022-09-29T15:52:28.034Z,2.80
2022-09-29T15:54:57.251Z,2.42
2022-09-29T15:57:49.983Z,3.00
2022-09-29T16:00:23.291Z,2.28
2022-09-29T16:03:09.612Z,2.22
2022-09-29T16:05:43.034Z,2.40
2022-09-29T16:08:25.279Z,2.53
2022-09-29T16:10:58.963Z,2.22
2022-09-29T16:13:29.079Z,2.50
2022-09-29T16:16:02.306Z,2.15
2022-09-29T16:18:31.706Z,2.70
2022-09-29T16:21:04.597Z,2.50
2022-09-29T16:23:41.342Z,3.25
2022-09-29T16:26:14.431Z,2.60
2022-09-29T16:28:59.833Z,2.70
2022-09-29T16:31:29.306Z,2.65
2022-09-29T16:34:00.689Z,2.70
2022-09-29T16:36:36.898Z,2.45
2022-09-29T16:39:05.885Z,2.42
2022-09-29T16:41:36.486Z,2.50
2022-09-29T16:44:17.369Z,2.65
2022-09-29T16:47:14.615Z,2.55
2022-09-29T16:49:49.563Z,3.00
2022-09-29T16:52:26.174Z,2.97
2022-09-29T16:55:05.900Z,2.75
2022-09-29T16:57:34.573Z,2.90
2022-09-29T17:00:11.156Z,2.83
2022-09-29T17:02:38.640Z,2.30
2022-09-29T17:05:06.585Z,3.72
2022-09-29T17:07:40.827Z,3.05
2022-09-29T17:10:17.779Z,3.97
2022-09-29T17:12:45.332Z,3.10
2022-09-29T17:15:17.810Z,3.35
2022-09-29T17:17:47.512Z,2.75
2022-09-29T17:20:18.095Z,3.22
2022-09-29T17:22:49.148Z,3.00
2022-09-29T17:25:16.738Z,2.65
2022-09-29T17:28:03.460Z,4.13
2022-09-29T17:30:30.915Z,3.83
2022-09-29T17:32:59.794Z,3.10
2022-09-29T17:35:30.769Z,2.88
2022-09-29T17:37:58.329Z,2.80
2022-09-29T17:40:49.862Z,3.63
2022-09-29T17:43:18.398Z,3.40
2022-09-29T17:45:46.926Z,2.97
2022-09-29T17:48:15.341Z,2.65
2022-09-29T17:50:45.990Z,2.90
2022-09-29T17:53:15.182Z,2.70
2022-09-29T17:55:44.649Z,2.88
2022-09-29T17:58:16.168Z,3.33
2022-09-29T18:00:48.724Z,2.53
2022-09-29T18:03:18.342Z,3.75
2022-09-29T18:05:48.666Z,3.95
2022-09-29T18:08:23.903Z,3.10
2022-09-29T18:10:56.743Z,2.97
2022-09-29T18:13:27.760Z,3.33
2022-09-29T18:15:56.278Z,3.20
2022-09-29T18:18:25.305Z,3.53
2022-09-29T18:20:52.821Z,3.25
2022-09-29T18:23:23.197Z,3.45
2022-09-29T18:25:52.360Z,3.83
2022-09-29T18:28:19.970Z,3.55
2022-09-29T18:30:56.455Z,4.32
2022-09-29T18:33:24.095Z,4.38
2022-09-29T18:35:53.963Z,4.47
2022-09-29T18:38:21.880Z,3.70
2022-09-29T18:40:52.420Z,4.32
2022-09-29T18:43:21.690Z,3.70
2022-09-29T18:45:49.479Z,3.72
2022-09-29T18:48:17.819Z,4.80
2022-09-29T18:50:50.604Z,3.65
2022-09-29T18:53:20.983Z,4.13
2022-09-29T18:55:52.410Z,4.53
2022-09-29T18:58:21.221Z,3.83
2022-09-29T19:00:53.715Z,4.30
2022-09-29T19:03:27.244Z,5.35
2022-09-29T19:05:55.973Z,4.35
2022-09-29T19:08:24.248Z,4.38
2022-09-29T19:10:54.730Z,4.28
2022-09-29T19:13:22.940Z,3.90
2022-09-29T19:15:50.958Z,5.15
2022-09-29T19:18:23.917Z,5.10
2022-09-29T19:20:57.055Z,4.72
2022-09-29T19:23:26.027Z,4.53
2022-09-29T19:25:54.901Z,4.72
2022-09-29T19:28:22.979Z,4.43
2022-09-29T19:30:50.808Z,4.65
2022-09-29T19:33:21.007Z,5.00
2022-09-29T19:35:54.833Z,5.28
2022-09-29T19:38:23.220Z,4.35
2022-09-29T19:40:51.739Z,4.32
2022-09-29T19:43:21.663Z,5.30
2022-09-29T19:45:50.214Z,4.40
2022-09-29T19:48:21.505Z,4.18
2022-09-29T19:51:14.765Z,6.75
2022-09-29T19:53:44.578Z,4.57
2022-09-29T19:56:16.648Z,6.32
2022-09-29T19:58:44.138Z,4.88
2022-09-29T20:01:12.907Z,6.15
2022-09-29T20:03:41.988Z,6.03
2022-09-29T20:06:10.469Z,5.85
2022-09-29T20:08:37.928Z,5.72
2022-09-29T20:11:07.886Z,4.68
2022-09-29T20:13:35.712Z,5.10
2022-09-29T20:16:05.847Z,6.35
2022-09-29T20:18:37.493Z,5.10
2022-09-29T20:21:09.902Z,6.40
2022-09-29T20:23:40.083Z,4.38
2022-09-29T20:26:14.014Z,6.28
2022-09-29T20:28:41.547Z,7.20
2022-09-29T20:31:09.081Z,6.93
2022-09-29T20:33:38.584Z,6.32
2022-09-29T20:36:06.399Z,6.10
2022-09-29T20:38:39.711Z,6.13
2022-09-29T20:41:07.957Z,5.45
2022-09-29T20:43:36.215Z,5.18
2022-09-29T20:46:06.593Z,7.22
2022-09-29T20:48:35.606Z,7.82
2022-09-29T20:51:04.611Z,6.40
2022-09-29T20:53:34.101Z,6.43
2022-09-29T20:56:18.321Z,6.28
2022-09-29T20:58:48.435Z,7.50
2022-09-29T21:01:23.125Z,7.63
2022-09-29T21:04:05.606Z,8.75
2022-09-29T21:06:36.087Z,6.80
2022-09-29T21:09:05.810Z,9.38
2022-09-29T21:11:38.263Z,6.97
2022-09-29T21:14:24.280Z,6.32
2022-09-29T21:16:53.257Z,5.20
2022-09-29T21:19:26.156Z,5.38
2022-09-29T21:21:55.705Z,6.78
2022-09-29T21:24:23.521Z,4.78
2022-09-29T21:26:51.095Z,5.82
2022-09-29T21:29:19.432Z,4.47
2022-09-29T21:31:47.699Z,4.30
2022-09-29T21:34:16.027Z,5.43
2022-09-29T21:36:43.655Z,5.30
2022-09-29T21:39:11.858Z,5.15
2022-09-29T21:41:41.503Z,4.10
2022-09-29T21:44:14.285Z,4.20
2022-09-29T21:46:42.719Z,4.60
2022-09-29T21:49:12.278Z,4.55
2022-09-29T21:51:45.159Z,4.53
2022-09-29T21:54:15.709Z,4.25
2022-09-29T21:56:44.337Z,3.97
2022-09-29T21:59:14.654Z,3.75
2022-09-29T22:01:43.006Z,4.10
2022-09-29T22:04:10.798Z,4.10
2022-09-29T22:06:39.627Z,4.40
2022-09-29T22:09:08.706Z,4.45
2022-09-29T22:11:42.427Z,4.05
2022-09-29T22:14:12.679Z,4.15
2022-09-29T22:16:40.698Z,4.38
2022-09-29T22:19:25.084Z,4.80
2022-09-29T22:21:55.462Z,4.88
2022-09-29T22:24:29.542Z,4.13
2022-09-29T22:26:57.085Z,5.35
2022-09-29T22:29:25.029Z,4.20
2022-09-29T22:31:52.799Z,4.75
2022-09-29T22:34:20.426Z,4.80
2022-09-29T22:36:48.002Z,4.45
2022-09-29T22:39:15.456Z,5.45
2022-09-29T22:41:43.172Z,4.38
2022-09-29T22:44:10.920Z,4.68
2022-09-29T22:46:38.578Z,3.63
2022-09-29T22:49:06.310Z,3.75
2022-09-29T22:51:33.771Z,3.80
2022-09-29T22:54:01.379Z,3.53
2022-09-29T22:56:29.215Z,2.72
2022-09-29T22:59:01.730Z,3.22
2022-09-29T23:01:29.763Z,3.53
2022-09-29T23:03:57.422Z,3.72
2022-09-29T23:06:25.416Z,4.45
2022-09-29T23:08:54.735Z,3.25
2022-09-29T23:11:23.558Z,3.33
2022-09-29T23:13:52.899Z,3.55
2022-09-29T23:16:20.702Z,3.05
2022-09-29T23:18:53.418Z,3.70
2022-09-29T23:21:21.945Z,3.67
2022-09-29T23:24:02.003Z,4.05
2022-09-29T23:26:30.563Z,4.57
2022-09-29T23:28:58.700Z,3.47
2022-09-29T23:31:27.274Z,4.50
2022-09-29T23:33:56.525Z,4.18
2022-09-29T23:36:26.123Z,4.55
2022-09-29T23:39:14.241Z,3.50
2022-09-29T23:41:51.179Z,4.53
2022-09-29T23:44:21.517Z,3.45
2022-09-29T23:46:49.705Z,3.65
2022-09-29T23:49:19.609Z,3.92
2022-09-29T23:51:50.341Z,3.20
2022-09-29T23:54:20.327Z,3.53
2022-09-29T23:56:49.421Z,3.63
2022-09-29T23:59:17.812Z,3.90
